createdAt,value
2023-06-04T00:02:19.351Z,16.22
2023-06-04T00:04:49.525Z,16.27
2023-06-04T00:07:20.016Z,16.25
2023-06-04T00:09:50.688Z,16.23
2023-06-04T00:12:20.960Z,16.23
2023-06-04T00:14:51.144Z,16.23
2023-06-04T00:17:23.979Z,16.19
2023-06-04T00:19:54.169Z,16.16
2023-06-04T00:22:28.669Z,16.12
2023-06-04T00:24:58.834Z,16.09
2023-06-04T00:27:28.930Z,16.09
2023-06-04T00:29:59.155Z,16.07
2023-06-04T00:32:32.156Z,16.05
2023-06-04T00:35:02.529Z,15.98
2023-06-04T00:37:33.012Z,15.95
2023-06-04T00:40:03.672Z,15.94
2023-06-04T00:42:33.866Z,15.93
2023-06-04T00:45:04.043Z,15.86
2023-06-04T00:47:37.104Z,15.85
2023-06-04T00:50:09.165Z,15.82
2023-06-04T00:52:39.452Z,15.78
2023-06-04T00:55:10.788Z,15.78
2023-06-04T00:57:41.702Z,15.75
2023-06-04T01:00:13.774Z,15.69
2023-06-04T01:02:52.704Z,15.61
2023-06-04T01:05:33.699Z,15.56
2023-06-04T01:08:05.819Z,15.50
2023-06-04T01:10:35.976Z,15.40
2023-06-04T01:13:06.456Z,15.30
2023-06-04T01:15:36.575Z,15.26
2023-06-04T01:18:09.580Z,15.22
2023-06-04T01:20:44.813Z,15.18
2023-06-04T01:23:35.061Z,15.09
2023-06-04T01:26:07.240Z,15.00
2023-06-04T01:28:39.145Z,14.92
2023-06-04T01:31:10.667Z,14.90
2023-06-04T01:33:43.715Z,14.88
2023-06-04T01:36:14.118Z,14.83
2023-06-04T01:38:44.275Z,14.79
2023-06-04T01:41:14.488Z,14.75
2023-06-04T01:43:44.734Z,14.75
2023-06-04T01:46:14.867Z,14.74
2023-06-04T01:48:50.127Z,14.69
2023-06-04T01:51:21.179Z,14.62
2023-06-04T01:53:51.328Z,14.57
2023-06-04T01:56:22.353Z,14.51
2023-06-04T01:58:53.247Z,14.48
2023-06-04T02:01:23.446Z,14.48
2023-06-04T02:03:56.454Z,14.47
2023-06-04T02:06:32.543Z,14.44
2023-06-04T02:09:04.628Z,14.40
2023-06-04T02:11:34.841Z,14.35
2023-06-04T02:14:04.944Z,14.28
2023-06-04T02:16:35.420Z,14.24
2023-06-04T02:19:08.277Z,14.20
2023-06-04T02:21:38.415Z,14.19
2023-06-04T02:24:08.917Z,14.19
2023-06-04T02:26:39.896Z,14.14
2023-06-04T02:29:10.033Z,14.08
2023-06-04T02:31:40.211Z,14.07
2023-06-04T02:34:13.325Z,14.00
2023-06-04T02:36:49.491Z,13.96
2023-06-04T02:39:19.952Z,13.97
2023-06-04T02:41:50.229Z,13.93
2023-06-04T02:44:20.450Z,13.89
2023-06-04T02:46:50.593Z,13.85
2023-06-04T02:49:23.328Z,13.81
2023-06-04T02:51:53.544Z,13.80
2023-06-04T02:54:23.661Z,13.82
2023-06-04T02:56:54.629Z,13.78
2023-06-04T02:59:24.906Z,13.71
2023-06-04T03:01:55.408Z,13.64
2023-06-04T03:04:35.272Z,13.60
2023-06-04T03:07:05.776Z,13.58
2023-06-04T03:09:36.154Z,13.60
2023-06-04T03:12:07.232Z,13.64
2023-06-04T03:14:37.971Z,13.65
2023-06-04T03:17:11.977Z,13.63
2023-06-04T03:19:45.992Z,13.67
2023-06-04T03:22:16.346Z,13.72
2023-06-04T03:24:46.622Z,13.75
2023-06-04T03:27:16.821Z,13.80
2023-06-04T03:29:47.112Z,13.84
2023-06-04T03:32:18.991Z,13.87
2023-06-04T03:34:53.103Z,13.88
2023-06-04T03:37:23.283Z,13.91
2023-06-04T03:39:53.652Z,13.96
2023-06-04T03:42:23.769Z,14.06
2023-06-04T03:44:54.793Z,14.15
2023-06-04T03:47:25.991Z,14.22
2023-06-04T03:49:58.802Z,14.23
2023-06-04T03:52:29.091Z,14.27
2023-06-04T03:55:02.750Z,14.31
2023-06-04T03:57:34.067Z,14.34
2023-06-04T04:00:05.150Z,14.41
2023-06-04T04:02:44.207Z,14.47
2023-06-04T04:05:26.169Z,14.51
2023-06-04T04:07:57.380Z,14.55
2023-06-04T04:10:32.423Z,14.62
2023-06-04T04:13:02.777Z,14.70
2023-06-04T04:15:36.247Z,14.81
2023-06-04T04:18:09.757Z,14.92
2023-06-04T04:20:43.223Z,15.09
2023-06-04T04:23:14.765Z,15.29
2023-06-04T04:25:48.566Z,15.52
2023-06-04T04:28:20.388Z,15.74
2023-06-04T04:30:51.812Z,15.95
2023-06-04T04:33:21.906Z,16.18
2023-06-04T04:35:55.064Z,16.38
2023-06-04T04:38:27.252Z,16.63
2023-06-04T04:41:02.318Z,16.87
2023-06-04T04:43:34.169Z,17.11
2023-06-04T04:46:15.498Z,17.37
2023-06-04T04:48:45.808Z,17.61
2023-06-04T04:51:19.183Z,17.85
2023-06-04T04:53:49.418Z,18.04
2023-06-04T04:56:20.468Z,18.27
2023-06-04T04:58:53.337Z,18.53
2023-06-04T05:01:27.625Z,18.81
2023-06-04T05:03:58.064Z,19.05
2023-06-04T05:06:31.248Z,19.26
2023-06-04T05:09:01.345Z,19.42
2023-06-04T05:11:33.311Z,19.58
2023-06-04T05:14:03.560Z,19.77
2023-06-04T05:16:36.658Z,19.93
2023-06-04T05:19:07.175Z,20.07
2023-06-04T05:21:43.193Z,20.29
2023-06-04T05:24:13.419Z,20.52
2023-06-04T05:26:43.876Z,20.72
2023-06-04T05:29:19.724Z,20.96
2023-06-04T05:31:50.844Z,21.13
2023-06-04T05:34:23.746Z,21.37
2023-06-04T05:36:58.425Z,21.52
2023-06-04T05:39:29.755Z,21.76
2023-06-04T05:42:20.233Z,22.05
2023-06-04T05:44:50.517Z,22.16
2023-06-04T05:47:23.718Z,22.28
2023-06-04T05:49:53.966Z,22.47
2023-06-04T05:52:27.051Z,22.67
2023-06-04T05:54:57.513Z,22.82
2023-06-04T05:57:27.585Z,23.02
2023-06-04T05:59:57.652Z,23.13
2023-06-04T06:02:28.379Z,23.23
2023-06-04T06:04:58.872Z,23.43
2023-06-04T06:07:32.244Z,23.58
2023-06-04T06:10:02.418Z,23.69
2023-06-04T06:12:35.109Z,23.82
2023-06-04T06:15:05.344Z,24.07
2023-06-04T06:17:36.596Z,24.34
2023-06-04T06:20:08.420Z,24.61
2023-06-04T06:22:41.610Z,24.87
2023-06-04T06:25:14.120Z,24.96
2023-06-04T06:27:49.835Z,25.06
2023-06-04T06:30:21.996Z,25.19
2023-06-04T06:32:55.133Z,25.16
2023-06-04T06:35:26.493Z,25.20
2023-06-04T06:37:59.222Z,25.39
2023-06-04T06:40:31.593Z,25.58
2023-06-04T06:43:01.794Z,25.76
2023-06-04T06:45:31.900Z,25.93
2023-06-04T06:48:02.165Z,26.07
2023-06-04T06:50:32.441Z,26.30
2023-06-04T06:53:05.251Z,26.44
2023-06-04T06:55:35.386Z,26.62
2023-06-04T06:58:05.532Z,26.85
2023-06-04T07:00:35.718Z,26.93
2023-06-04T07:03:09.647Z,27.15
2023-06-04T07:05:39.813Z,27.39
2023-06-04T07:08:12.636Z,27.56
2023-06-04T07:10:42.891Z,27.75
2023-06-04T07:13:13.123Z,27.91
2023-06-04T07:15:43.335Z,27.95
2023-06-04T07:18:13.638Z,27.94
2023-06-04T07:20:43.854Z,28.01
2023-06-04T07:23:16.740Z,28.17
2023-06-04T07:25:46.952Z,28.23
2023-06-04T07:28:17.332Z,28.47
2023-06-04T07:30:49.797Z,28.80
2023-06-04T07:33:20.408Z,29.14
2023-06-04T07:35:50.568Z,29.25
2023-06-04T07:38:23.255Z,29.43
2023-06-04T07:40:54.143Z,29.65
2023-06-04T07:43:24.423Z,29.96
2023-06-04T07:45:55.096Z,30.13
2023-06-04T07:48:31.554Z,30.31
2023-06-04T07:51:01.979Z,30.39
2023-06-04T07:53:34.978Z,30.49
2023-06-04T07:56:05.184Z,30.74
2023-06-04T07:58:35.886Z,30.90
2023-06-04T08:01:07.230Z,30.86
2023-06-04T08:03:38.549Z,30.92
2023-06-04T08:06:09.124Z,31.05
2023-06-04T08:08:42.781Z,31.03
2023-06-04T08:11:13.092Z,30.73
2023-06-04T08:13:44.196Z,30.63
2023-06-04T08:16:14.965Z,30.87
2023-06-04T08:19:05.431Z,30.95
2023-06-04T08:21:51.895Z,30.95
2023-06-04T08:24:38.225Z,31.24
2023-06-04T08:27:25.249Z,31.73
2023-06-04T08:29:58.637Z,32.06
2023-06-04T08:32:48.755Z,31.90
2023-06-04T08:35:22.440Z,31.77
2023-06-04T08:37:52.698Z,31.93
2023-06-04T08:40:26.153Z,32.01
2023-06-04T08:43:00.276Z,31.95
2023-06-04T08:45:31.013Z,31.97
2023-06-04T08:48:01.340Z,31.87
2023-06-04T08:50:33.103Z,31.87
2023-06-04T08:53:03.533Z,31.89
2023-06-04T08:55:36.702Z,31.98
2023-06-04T08:58:09.344Z,32.24
2023-06-04T09:00:39.654Z,32.59
2023-06-04T09:03:11.792Z,32.74
2023-06-04T09:05:49.680Z,32.87
2023-06-04T09:08:21.462Z,33.17
2023-06-04T09:10:57.177Z,33.42
2023-06-04T09:13:34.965Z,33.58
2023-06-04T09:16:05.606Z,33.68
2023-06-04T09:18:37.457Z,33.64
2023-06-04T09:21:09.774Z,33.63
2023-06-04T09:23:48.586Z,33.78
2023-06-04T09:26:25.781Z,33.90
2023-06-04T09:28:59.230Z,34.03
2023-06-04T09:31:33.181Z,34.38
2023-06-04T09:34:03.453Z,34.74
2023-06-04T09:36:36.360Z,34.98
2023-06-04T09:39:07.524Z,35.08
2023-06-04T09:41:40.864Z,35.02
2023-06-04T09:44:12.067Z,35.30
2023-06-04T09:46:42.282Z,35.62
2023-06-04T09:49:12.347Z,35.78
2023-06-04T09:51:51.333Z,35.84
2023-06-04T09:54:21.576Z,35.95
2023-06-04T09:56:54.370Z,35.59
2023-06-04T09:59:24.479Z,35.32
2023-06-04T10:01:55.160Z,35.20
2023-06-04T10:04:25.632Z,35.05
2023-06-04T10:06:56.255Z,34.96
2023-06-04T10:09:31.274Z,34.96
2023-06-04T10:12:06.316Z,34.67
2023-06-04T10:14:45.109Z,34.80
2023-06-04T10:17:17.640Z,35.13
2023-06-04T10:19:48.806Z,35.55
2023-06-04T10:22:19.407Z,35.75
2023-06-04T10:24:49.765Z,35.61
2023-06-04T10:27:24.676Z,35.45
2023-06-04T10:29:55.695Z,35.60
2023-06-04T10:32:25.924Z,35.91
2023-06-04T10:34:56.537Z,36.23
2023-06-04T10:37:28.095Z,36.45
2023-06-04T10:39:59.550Z,36.51
2023-06-04T10:42:42.657Z,36.85
2023-06-04T10:45:13.838Z,36.82
2023-06-04T10:47:45.245Z,36.85
2023-06-04T10:50:17.582Z,36.85
2023-06-04T10:52:59.945Z,36.65
2023-06-04T10:55:30.224Z,36.47
2023-06-04T10:58:05.193Z,36.40
2023-06-04T11:00:47.183Z,36.83
2023-06-04T11:03:17.658Z,37.33
2023-06-04T11:05:49.290Z,37.68
2023-06-04T11:08:30.152Z,38.11
2023-06-04T11:11:00.321Z,38.56
2023-06-04T11:13:33.011Z,38.71
2023-06-04T11:16:03.151Z,38.67
2023-06-04T11:18:33.330Z,38.45
2023-06-04T11:21:04.511Z,38.33
2023-06-04T11:23:34.767Z,38.48
2023-06-04T11:26:05.352Z,38.78
2023-06-04T11:28:41.429Z,38.71
2023-06-04T11:31:12.041Z,38.95
2023-06-04T11:33:52.404Z,39.19
2023-06-04T11:36:29.935Z,39.68
2023-06-04T11:39:01.750Z,40.21
2023-06-04T11:41:33.293Z,40.56
2023-06-04T11:44:10.308Z,40.80
2023-06-04T11:46:44.988Z,41.00
2023-06-04T11:49:19.069Z,40.95
2023-06-04T11:51:53.060Z,41.13
2023-06-04T11:54:24.680Z,41.28
2023-06-04T11:56:55.971Z,41.49
2023-06-04T11:59:33.126Z,41.39
2023-06-04T12:02:03.372Z,41.18
2023-06-04T12:04:35.041Z,41.24
2023-06-04T12:07:07.528Z,40.95
2023-06-04T12:09:40.425Z,40.38
2023-06-04T12:12:16.084Z,40.47
2023-06-04T12:15:20.094Z,40.45
2023-06-04T12:17:58.355Z,40.46
2023-06-04T12:20:44.788Z,40.55
2023-06-04T12:23:28.872Z,40.86
2023-06-04T12:26:01.647Z,41.11
2023-06-04T12:28:36.813Z,41.39
2023-06-04T12:31:21.848Z,41.77
2023-06-04T12:33:52.521Z,42.04
2023-06-04T12:36:22.800Z,41.83
2023-06-04T12:38:53.009Z,41.53
2023-06-04T12:41:23.623Z,41.62
2023-06-04T12:43:54.107Z,41.55
2023-06-04T12:46:27.556Z,41.84
2023-06-04T12:48:59.170Z,42.19
2023-06-04T12:51:32.437Z,42.25
2023-06-04T12:54:02.800Z,42.24
2023-06-04T12:56:34.782Z,42.45
2023-06-04T12:59:05.019Z,42.71
2023-06-04T13:01:38.760Z,42.60
2023-06-04T13:04:09.519Z,42.39
2023-06-04T13:06:40.791Z,41.33
2023-06-04T13:09:12.750Z,39.79
2023-06-04T13:11:49.735Z,38.64
2023-06-04T13:14:20.158Z,37.63
2023-06-04T13:16:53.216Z,36.36
2023-06-04T13:19:24.192Z,35.07
2023-06-04T13:21:55.428Z,33.77
2023-06-04T13:24:27.016Z,32.75
2023-06-04T13:26:57.187Z,32.08
2023-06-04T13:29:27.664Z,31.66
2023-06-04T13:32:00.375Z,31.37
2023-06-04T13:34:32.770Z,30.70
2023-06-04T13:37:04.186Z,29.74
2023-06-04T13:39:36.280Z,29.11
2023-06-04T13:42:08.208Z,28.88
2023-06-04T13:44:41.144Z,28.69
2023-06-04T13:47:14.184Z,28.49
2023-06-04T13:49:44.262Z,28.31
2023-06-04T13:52:14.366Z,27.97
2023-06-04T13:54:44.419Z,27.75
2023-06-04T13:57:17.302Z,27.60
2023-06-04T13:59:47.479Z,27.50
2023-06-04T14:02:20.488Z,27.58
2023-06-04T14:04:51.101Z,27.79
2023-06-04T14:07:21.476Z,27.78
2023-06-04T14:09:55.886Z,27.81
2023-06-04T14:12:26.784Z,28.01
2023-06-04T14:14:56.888Z,28.09
2023-06-04T14:17:29.649Z,28.08
2023-06-04T14:19:59.722Z,28.10
2023-06-04T14:22:30.083Z,28.19
2023-06-04T14:25:02.528Z,28.32
2023-06-04T14:27:32.685Z,28.41
2023-06-04T14:30:03.005Z,28.45
2023-06-04T14:32:37.615Z,28.47
2023-06-04T14:35:11.499Z,28.53
2023-06-04T14:37:41.644Z,28.66
2023-06-04T14:40:15.995Z,28.70
2023-06-04T14:42:49.502Z,28.77
2023-06-04T14:45:33.363Z,28.78
2023-06-04T14:50:43.485Z,28.71
2023-06-04T14:53:13.543Z,28.49
2023-06-04T14:55:43.987Z,28.18
2023-06-04T14:58:15.400Z,27.92
2023-06-04T15:00:46.311Z,27.78
2023-06-04T15:03:19.248Z,27.57
2023-06-04T15:05:49.483Z,27.54
2023-06-04T15:08:22.721Z,27.52
2023-06-04T15:10:52.941Z,27.54
2023-06-04T15:13:23.299Z,27.70
2023-06-04T15:15:53.903Z,27.78
2023-06-04T15:18:29.336Z,27.85
2023-06-04T15:20:59.612Z,27.88
2023-06-04T15:23:29.969Z,27.86
2023-06-04T15:26:00.269Z,27.81
2023-06-04T15:28:33.405Z,27.82
2023-06-04T15:31:03.624Z,27.69
2023-06-04T15:33:36.815Z,27.47
2023-06-04T15:36:07.901Z,27.41
2023-06-04T15:38:38.396Z,27.48
2023-06-04T15:41:09.009Z,27.49
2023-06-04T15:43:39.766Z,27.39
2023-06-04T15:46:12.659Z,27.41
2023-06-04T15:48:45.917Z,27.41
2023-06-04T15:51:16.104Z,27.41
2023-06-04T15:53:47.332Z,27.41
2023-06-04T15:56:17.597Z,27.41
2023-06-04T15:58:48.150Z,27.41
2023-06-04T16:01:18.500Z,27.40
2023-06-04T16:03:51.567Z,27.36
2023-06-04T16:06:36.847Z,27.38
2023-06-04T16:09:07.127Z,27.36
2023-06-04T16:11:37.881Z,27.24
2023-06-04T16:14:10.985Z,27.27
2023-06-04T16:16:41.299Z,27.19
2023-06-04T16:19:14.718Z,27.06
2023-06-04T16:21:45.579Z,27.02
2023-06-04T16:24:17.626Z,26.90
2023-06-04T16:26:47.854Z,26.84
2023-06-04T16:29:18.023Z,26.82
2023-06-04T16:31:48.331Z,26.82
2023-06-04T16:34:21.208Z,26.86
2023-06-04T16:36:51.649Z,26.84
2023-06-04T16:39:28.061Z,26.75
2023-06-04T16:42:01.996Z,26.74
2023-06-04T16:44:32.275Z,26.79
2023-06-04T16:47:02.532Z,26.82
2023-06-04T16:49:35.328Z,26.80
2023-06-04T16:52:05.832Z,26.78
2023-06-04T16:54:36.584Z,26.69
2023-06-04T16:57:07.238Z,26.64
2023-06-04T16:59:40.483Z,26.59
2023-06-04T17:02:10.860Z,26.58
2023-06-04T17:04:44.536Z,26.55
2023-06-04T17:07:15.119Z,26.53
2023-06-04T17:09:48.744Z,26.54
2023-06-04T17:12:19.224Z,26.52
2023-06-04T17:14:49.313Z,26.45
2023-06-04T17:17:19.474Z,26.40
2023-06-04T17:19:52.279Z,26.40
2023-06-04T17:22:22.408Z,26.45
2023-06-04T17:24:53.692Z,26.39
2023-06-04T17:27:23.832Z,26.38
2023-06-04T17:29:54.222Z,26.39
2023-06-04T17:32:24.498Z,26.33
2023-06-04T17:34:57.351Z,26.28
2023-06-04T17:37:27.730Z,26.21
2023-06-04T17:39:57.943Z,26.15
2023-06-04T17:42:28.114Z,26.11
2023-06-04T17:44:58.333Z,26.11
2023-06-04T17:47:30.222Z,26.10
2023-06-04T17:50:07.888Z,26.09
2023-06-04T17:52:39.804Z,26.09
2023-06-04T17:55:11.093Z,25.98
2023-06-04T17:57:41.356Z,25.91
2023-06-04T18:00:13.533Z,25.88
2023-06-04T18:02:44.089Z,25.82
2023-06-04T18:05:16.920Z,25.79
2023-06-04T18:07:47.016Z,25.72
2023-06-04T18:10:17.994Z,25.57
2023-06-04T18:12:48.629Z,25.47
2023-06-04T18:15:19.470Z,25.38
2023-06-04T18:17:49.931Z,25.33
2023-06-04T18:20:23.006Z,25.24
2023-06-04T18:22:53.415Z,25.18
2023-06-04T18:25:23.528Z,25.09
2023-06-04T18:27:53.686Z,25.02
2023-06-04T18:30:23.878Z,24.99
2023-06-04T18:32:55.028Z,24.97
2023-06-04T18:35:28.015Z,24.90
2023-06-04T18:37:58.986Z,24.91
2023-06-04T18:40:29.147Z,24.88
2023-06-04T18:42:59.264Z,24.85
2023-06-04T18:45:30.817Z,24.80
2023-06-04T18:48:00.926Z,24.74
2023-06-04T18:50:33.980Z,24.72
2023-06-04T18:53:04.085Z,24.67
2023-06-04T18:55:34.242Z,24.61
2023-06-04T18:58:04.378Z,24.56
2023-06-04T19:00:34.497Z,24.52
2023-06-04T19:03:04.643Z,24.49
2023-06-04T19:05:37.433Z,24.44
2023-06-04T19:08:07.989Z,24.39
2023-06-04T19:10:38.153Z,24.34
2023-06-04T19:13:08.268Z,24.26
2023-06-04T19:15:41.321Z,24.18
2023-06-04T19:18:11.571Z,24.07
2023-06-04T19:20:44.405Z,23.97
2023-06-04T19:23:14.770Z,23.90
2023-06-04T19:25:44.910Z,23.82
2023-06-04T19:28:16.966Z,23.74
2023-06-04T19:30:47.488Z,23.66
2023-06-04T19:33:17.597Z,23.57
2023-06-04T19:35:50.409Z,23.47
2023-06-04T19:38:20.836Z,23.41
2023-06-04T19:40:50.988Z,23.34
2023-06-04T19:43:21.464Z,23.26
2023-06-04T19:45:51.885Z,23.17
2023-06-04T19:48:21.985Z,23.09
2023-06-04T19:50:54.725Z,23.02
2023-06-04T19:53:26.951Z,22.96
2023-06-04T19:55:57.100Z,22.89
2023-06-04T19:58:27.952Z,22.82
2023-06-04T20:01:00.931Z,22.72
2023-06-04T20:03:32.608Z,22.64
2023-06-04T20:06:05.518Z,22.53
2023-06-04T20:08:35.947Z,22.44
2023-06-04T20:11:06.638Z,22.36
2023-06-04T20:13:36.726Z,22.26
2023-06-04T20:16:07.422Z,22.19
2023-06-04T20:18:37.910Z,22.09
2023-06-04T20:21:10.846Z,22.06
2023-06-04T20:23:40.985Z,22.07
2023-06-04T20:26:11.845Z,22.06
2023-06-04T20:28:41.943Z,22.03
2023-06-04T20:31:12.100Z,22.01
2023-06-04T20:33:42.208Z,21.98
2023-06-04T20:36:14.876Z,21.91
2023-06-04T20:38:45.046Z,21.88
2023-06-04T20:41:15.572Z,21.81
2023-06-04T20:43:49.997Z,21.75
2023-06-04T20:46:20.213Z,21.68
2023-06-04T20:48:51.356Z,21.63
2023-06-04T20:51:24.306Z,21.59
2023-06-04T20:53:54.434Z,21.52
2023-06-04T20:56:24.736Z,21.44
2023-06-04T20:58:54.890Z,21.36
2023-06-04T21:01:25.555Z,21.32
2023-06-04T21:03:57.571Z,21.25
2023-06-04T21:06:32.715Z,21.16
2023-06-04T21:09:05.114Z,21.14
2023-06-04T21:11:35.338Z,21.05
2023-06-04T21:14:05.584Z,21.00
2023-06-04T21:16:35.885Z,20.94
2023-06-04T21:19:06.030Z,20.88
2023-06-04T21:21:38.711Z,20.82
2023-06-04T21:24:09.022Z,20.84
2023-06-04T21:26:39.246Z,20.87
2023-06-04T21:29:09.325Z,20.87
2023-06-04T21:31:39.856Z,20.86
2023-06-04T21:34:10.216Z,20.85
2023-06-04T21:36:49.280Z,20.83
2023-06-04T21:39:19.766Z,20.77
2023-06-04T21:41:49.832Z,20.76
2023-06-04T21:44:19.881Z,20.70
2023-06-04T21:46:50.156Z,20.64
2023-06-04T21:49:20.502Z,20.60
2023-06-04T21:51:53.271Z,20.63
2023-06-04T21:54:23.716Z,20.61
2023-06-04T21:56:53.824Z,20.60
2023-06-04T21:59:29.302Z,20.55
2023-06-04T22:02:00.060Z,20.53
2023-06-04T22:04:30.153Z,20.50
2023-06-04T22:07:04.411Z,20.45
2023-06-04T22:09:34.866Z,20.39
2023-06-04T22:12:05.190Z,20.35
2023-06-04T22:14:36.547Z,20.29
2023-06-04T22:17:06.838Z,20.26
2023-06-04T22:19:37.330Z,20.21
2023-06-04T22:22:10.135Z,20.13
2023-06-04T22:24:40.268Z,20.08
2023-06-04T22:27:10.389Z,20.01
2023-06-04T22:29:41.080Z,19.95
2023-06-04T22:32:11.729Z,19.89
2023-06-04T22:34:41.812Z,19.85
2023-06-04T22:37:15.782Z,19.83
2023-06-04T22:39:46.186Z,19.80
2023-06-04T22:42:16.356Z,19.75
2023-06-04T22:44:46.663Z,19.73
2023-06-04T22:47:16.786Z,19.71
2023-06-04T22:49:46.900Z,19.68
2023-06-04T22:52:21.106Z,19.63
2023-06-04T22:54:51.258Z,19.58
2023-06-04T22:57:21.694Z,19.56
2023-06-04T22:59:56.452Z,19.53
2023-06-04T23:02:28.201Z,19.48
2023-06-04T23:04:58.720Z,19.45
2023-06-04T23:07:31.876Z,19.42
2023-06-04T23:10:02.602Z,19.38
2023-06-04T23:12:32.984Z,19.37
2023-06-04T23:15:03.532Z,19.29
2023-06-04T23:17:34.587Z,19.27
2023-06-04T23:20:05.370Z,19.28
2023-06-04T23:22:38.194Z,19.23
2023-06-04T23:25:10.420Z,19.20
2023-06-04T23:27:41.091Z,19.17
2023-06-04T23:30:13.322Z,19.12
2023-06-04T23:32:43.581Z,19.11
2023-06-04T23:35:14.067Z,19.10
2023-06-04T23:37:47.254Z,19.09
2023-06-04T23:40:17.820Z,19.12
2023-06-04T23:42:48.220Z,19.18
2023-06-04T23:45:18.454Z,19.18
2023-06-04T23:47:49.225Z,19.16
2023-06-04T23:50:21.401Z,19.15
2023-06-04T23:52:54.218Z,19.09
2023-06-04T23:55:24.815Z,19.11
2023-06-04T23:57:56.520Z,19.10
